sensor_id;sensor_type;location;lat;lon;timestamp;P1;durP1;ratioP1;P2;durP2;ratioP2
41897;SDS011;27576;53.366;-1.498;2022-10-28T00:01:04;13.15;;;5.53;;
41897;SDS011;27576;53.366;-1.498;2022-10-28T00:03:44;19.85;;;6.18;;
41897;SDS011;27576;53.366;-1.498;2022-10-28T00:06:12;15.23;;;6.32;;
41897;SDS011;27576;53.366;-1.498;2022-10-28T00:08:43;9.60;;;5.53;;
41897;SDS011;27576;53.366;-1.498;2022-10-28T00:11:13;12.70;;;5.63;;
41897;SDS011;27576;53.366;-1.498;2022-10-28T00:13:43;17.75;;;5.30;;
41897;SDS011;27576;53.366;-1.498;2022-10-28T00:18:59;28.02;;;8.52;;
41897;SDS011;27576;53.366;-1.498;2022-10-28T00:21:27;19.27;;;6.55;;
41897;SDS011;27576;53.366;-1.498;2022-10-28T00:23:53;17.35;;;7.90;;
41897;SDS011;27576;53.366;-1.498;2022-10-28T00:26:24;20.75;;;10.13;;
41897;SDS011;27576;53.366;-1.498;2022-10-28T00:28:52;27.13;;;11.65;;
41897;SDS011;27576;53.366;-1.498;2022-10-28T00:31:22;20.23;;;11.07;;
41897;SDS011;27576;53.366;-1.498;2022-10-28T00:34:13;20.83;;;11.68;;
41897;SDS011;27576;53.366;-1.498;2022-10-28T00:41:16;17.63;;;10.18;;
41897;SDS011;27576;53.366;-1.498;2022-10-28T00:48:05;29.08;;;11.95;;
41897;SDS011;27576;53.366;-1.498;2022-10-28T01:09:53;21.48;;;11.23;;
41897;SDS011;27576;53.366;-1.498;2022-10-28T01:38:03;17.60;;;9.88;;
41897;SDS011;27576;53.366;-1.498;2022-10-28T01:48:33;14.07;;;7.15;;
41897;SDS011;27576;53.366;-1.498;2022-10-28T01:56:14;14.55;;;7.00;;
41897;SDS011;27576;53.366;-1.498;2022-10-28T02:00:11;15.23;;;7.80;;
41897;SDS011;27576;53.366;-1.498;2022-10-28T02:03:44;15.65;;;6.75;;
41897;SDS011;27576;53.366;-1.498;2022-10-28T02:07:27;11.38;;;5.82;;
41897;SDS011;27576;53.366;-1.498;2022-10-28T02:35:30;11.93;;;6.18;;
41897;SDS011;27576;53.366;-1.498;2022-10-28T03:11:36;12.57;;;5.57;;
41897;SDS011;27576;53.366;-1.498;2022-10-28T03:25:44;24.30;;;8.30;;
41897;SDS011;27576;53.366;-1.498;2022-10-28T03:43:40;13.57;;;6.65;;
41897;SDS011;27576;53.366;-1.498;2022-10-28T03:46:50;18.95;;;6.82;;
41897;SDS011;27576;53.366;-1.498;2022-10-28T03:50:21;11.50;;;5.28;;
41897;SDS011;27576;53.366;-1.498;2022-10-28T03:53:59;10.13;;;5.65;;
41897;SDS011;27576;53.366;-1.498;2022-10-28T03:57:37;16.00;;;6.20;;
41897;SDS011;27576;53.366;-1.498;2022-10-28T04:09:03;12.73;;;6.97;;
41897;SDS011;27576;53.366;-1.498;2022-10-28T04:19:26;19.02;;;8.02;;
41897;SDS011;27576;53.366;-1.498;2022-10-28T04:22:52;14.73;;;7.80;;
41897;SDS011;27576;53.366;-1.498;2022-10-28T04:26:25;25.05;;;9.32;;
41897;SDS011;27576;53.366;-1.498;2022-10-28T04:33:37;24.80;;;10.43;;
41897;SDS011;27576;53.366;-1.498;2022-10-28T04:37:22;20.08;;;9.70;;
41897;SDS011;27576;53.366;-1.498;2022-10-28T04:44:37;23.17;;;10.25;;
41897;SDS011;27576;53.366;-1.498;2022-10-28T04:48:19;15.68;;;9.13;;
41897;SDS011;27576;53.366;-1.498;2022-10-28T04:55:57;18.50;;;9.40;;
41897;SDS011;27576;53.366;-1.498;2022-10-28T04:59:30;27.45;;;10.77;;
41897;SDS011;27576;53.366;-1.498;2022-10-28T05:42:31;25.00;;;13.07;;
41897;SDS011;27576;53.366;-1.498;2022-10-28T05:49:40;18.75;;;10.48;;
41897;SDS011;27576;53.366;-1.498;2022-10-28T05:57:01;23.25;;;12.80;;
41897;SDS011;27576;53.366;-1.498;2022-10-28T06:32:34;16.02;;;7.68;;
41897;SDS011;27576;53.366;-1.498;2022-10-28T06:42:38;19.98;;;8.05;;
41897;SDS011;27576;53.366;-1.498;2022-10-28T06:45:03;14.77;;;6.47;;
41897;SDS011;27576;53.366;-1.498;2022-10-28T06:47:29;18.42;;;7.43;;
41897;SDS011;27576;53.366;-1.498;2022-10-28T06:49:55;23.27;;;7.07;;
41897;SDS011;27576;53.366;-1.498;2022-10-28T06:52:20;16.00;;;6.28;;
41897;SDS011;27576;53.366;-1.498;2022-10-28T06:54:45;11.65;;;5.00;;
41897;SDS011;27576;53.366;-1.498;2022-10-28T06:57:11;11.02;;;5.60;;
41897;SDS011;27576;53.366;-1.498;2022-10-28T06:59:36;12.07;;;5.47;;
41897;SDS011;27576;53.366;-1.498;2022-10-28T07:02:01;14.32;;;5.00;;
41897;SDS011;27576;53.366;-1.498;2022-10-28T07:04:27;12.18;;;4.50;;
41897;SDS011;27576;53.366;-1.498;2022-10-28T07:06:53;11.05;;;5.03;;
41897;SDS011;27576;53.366;-1.498;2022-10-28T07:09:20;16.20;;;4.78;;
41897;SDS011;27576;53.366;-1.498;2022-10-28T07:11:48;11.80;;;5.30;;
41897;SDS011;27576;53.366;-1.498;2022-10-28T07:14:14;8.50;;;4.45;;
41897;SDS011;27576;53.366;-1.498;2022-10-28T07:16:40;11.98;;;4.60;;
41897;SDS011;27576;53.366;-1.498;2022-10-28T07:19:06;12.00;;;4.63;;
41897;SDS011;27576;53.366;-1.498;2022-10-28T07:21:32;13.23;;;4.70;;
41897;SDS011;27576;53.366;-1.498;2022-10-28T07:23:58;10.73;;;4.40;;
41897;SDS011;27576;53.366;-1.498;2022-10-28T07:26:23;10.25;;;4.05;;
41897;SDS011;27576;53.366;-1.498;2022-10-28T07:28:49;10.43;;;4.53;;
41897;SDS011;27576;53.366;-1.498;2022-10-28T07:31:15;12.55;;;4.63;;
41897;SDS011;27576;53.366;-1.498;2022-10-28T07:33:40;11.32;;;4.60;;
41897;SDS011;27576;53.366;-1.498;2022-10-28T07:36:06;13.30;;;4.13;;
41897;SDS011;27576;53.366;-1.498;2022-10-28T07:38:32;8.20;;;3.92;;
41897;SDS011;27576;53.366;-1.498;2022-10-28T07:41:01;10.90;;;3.95;;
41897;SDS011;27576;53.366;-1.498;2022-10-28T07:43:28;11.50;;;4.38;;
41897;SDS011;27576;53.366;-1.498;2022-10-28T07:45:56;10.85;;;4.10;;
41897;SDS011;27576;53.366;-1.498;2022-10-28T07:48:22;10.63;;;4.20;;
41897;SDS011;27576;53.366;-1.498;2022-10-28T07:50:48;16.90;;;4.88;;
41897;SDS011;27576;53.366;-1.498;2022-10-28T07:53:13;18.75;;;4.40;;
41897;SDS011;27576;53.366;-1.498;2022-10-28T07:55:38;8.20;;;4.13;;
41897;SDS011;27576;53.366;-1.498;2022-10-28T07:58:04;11.02;;;4.47;;
41897;SDS011;27576;53.366;-1.498;2022-10-28T08:00:29;11.57;;;3.85;;
41897;SDS011;27576;53.366;-1.498;2022-10-28T08:02:55;17.63;;;4.63;;
41897;SDS011;27576;53.366;-1.498;2022-10-28T08:05:20;10.68;;;3.75;;
41897;SDS011;27576;53.366;-1.498;2022-10-28T08:07:45;7.07;;;3.72;;
41897;SDS011;27576;53.366;-1.498;2022-10-28T08:10:11;13.60;;;3.70;;
41897;SDS011;27576;53.366;-1.498;2022-10-28T08:12:37;7.78;;;3.38;;
41897;SDS011;27576;53.366;-1.498;2022-10-28T08:15:03;10.40;;;3.15;;
41897;SDS011;27576;53.366;-1.498;2022-10-28T08:17:29;11.60;;;3.75;;
41897;SDS011;27576;53.366;-1.498;2022-10-28T08:19:54;5.85;;;2.85;;
41897;SDS011;27576;53.366;-1.498;2022-10-28T08:22:20;6.43;;;2.47;;
41897;SDS011;27576;53.366;-1.498;2022-10-28T08:24:46;9.50;;;2.78;;
41897;SDS011;27576;53.366;-1.498;2022-10-28T08:27:12;8.20;;;2.92;;
41897;SDS011;27576;53.366;-1.498;2022-10-28T08:29:37;7.40;;;2.28;;
41897;SDS011;27576;53.366;-1.498;2022-10-28T08:32:02;5.55;;;2.00;;
41897;SDS011;27576;53.366;-1.498;2022-10-28T08:34:28;7.22;;;2.10;;
41897;SDS011;27576;53.366;-1.498;2022-10-28T08:36:54;4.80;;;2.10;;
41897;SDS011;27576;53.366;-1.498;2022-10-28T08:39:20;3.00;;;1.50;;
41897;SDS011;27576;53.366;-1.498;2022-10-28T08:41:47;1.85;;;1.05;;
41897;SDS011;27576;53.366;-1.498;2022-10-28T08:49:58;3.72;;;1.23;;
41897;SDS011;27576;53.366;-1.498;2022-10-28T08:52:51;3.83;;;1.30;;
41897;SDS011;27576;53.366;-1.498;2022-10-28T08:55:25;3.60;;;1.10;;
41897;SDS011;27576;53.366;-1.498;2022-10-28T08:58:05;4.22;;;1.10;;
41897;SDS011;27576;53.366;-1.498;2022-10-28T09:00:43;3.88;;;0.90;;
41897;SDS011;27576;53.366;-1.498;2022-10-28T09:03:35;4.47;;;0.85;;
41897;SDS011;27576;53.366;-1.498;2022-10-28T09:06:06;5.00;;;1.30;;
41897;SDS011;27576;53.366;-1.498;2022-10-28T09:08:39;4.05;;;1.17;;
41897;SDS011;27576;53.366;-1.498;2022-10-28T09:30:53;2.65;;;0.82;;
41897;SDS011;27576;53.366;-1.498;2022-10-28T09:36:15;3.30;;;1.25;;
41897;SDS011;27576;53.366;-1.498;2022-10-28T09:38:48;1.55;;;0.80;;
41897;SDS011;27576;53.366;-1.498;2022-10-28T09:41:18;2.20;;;0.90;;
41897;SDS011;27576;53.366;-1.498;2022-10-28T09:43:50;4.88;;;1.15;;
41897;SDS011;27576;53.366;-1.498;2022-10-28T09:49:10;2.72;;;1.00;;
41897;SDS011;27576;53.366;-1.498;2022-10-28T09:51:42;1.00;;;0.70;;
41897;SDS011;27576;53.366;-1.498;2022-10-28T09:54:09;2.78;;;0.60;;
41897;SDS011;27576;53.366;-1.498;2022-10-28T09:56:36;1.15;;;0.80;;
41897;SDS011;27576;53.366;-1.498;2022-10-28T09:59:06;2.75;;;0.85;;
41897;SDS011;27576;53.366;-1.498;2022-10-28T10:01:36;2.97;;;1.20;;
41897;SDS011;27576;53.366;-1.498;2022-10-28T10:04:16;0.80;;;0.63;;
41897;SDS011;27576;53.366;-1.498;2022-10-28T10:07:08;1.38;;;0.50;;
41897;SDS011;27576;53.366;-1.498;2022-10-28T10:09:36;2.72;;;0.60;;
41897;SDS011;27576;53.366;-1.498;2022-10-28T10:12:06;1.10;;;0.50;;
41897;SDS011;27576;53.366;-1.498;2022-10-28T10:14:41;0.93;;;0.77;;
41897;SDS011;27576;53.366;-1.498;2022-10-28T10:17:11;1.63;;;0.63;;
41897;SDS011;27576;53.366;-1.498;2022-10-28T10:19:57;1.45;;;0.60;;
41897;SDS011;27576;53.366;-1.498;2022-10-28T10:24:55;0.82;;;0.50;;
41897;SDS011;27576;53.366;-1.498;2022-10-28T10:27:21;0.90;;;0.50;;
41897;SDS011;27576;53.366;-1.498;2022-10-28T10:29:47;1.08;;;0.50;;
41897;SDS011;27576;53.366;-1.498;2022-10-28T10:32:16;1.52;;;0.52;;
41897;SDS011;27576;53.366;-1.498;2022-10-28T10:34:43;3.50;;;0.60;;
41897;SDS011;27576;53.366;-1.498;2022-10-28T10:37:18;1.25;;;0.70;;
41897;SDS011;27576;53.366;-1.498;2022-10-28T10:39:49;0.88;;;0.50;;
41897;SDS011;27576;53.366;-1.498;2022-10-28T10:42:24;2.25;;;0.73;;
41897;SDS011;27576;53.366;-1.498;2022-10-28T10:45:02;2.63;;;0.60;;
41897;SDS011;27576;53.366;-1.498;2022-10-28T10:47:42;1.40;;;0.50;;
41897;SDS011;27576;53.366;-1.498;2022-10-28T10:52:56;1.80;;;0.65;;
41897;SDS011;27576;53.366;-1.498;2022-10-28T10:55:36;1.27;;;0.50;;
41897;SDS011;27576;53.366;-1.498;2022-10-28T10:58:05;0.82;;;0.50;;
41897;SDS011;27576;53.366;-1.498;2022-10-28T11:00:43;1.25;;;0.80;;
41897;SDS011;27576;53.366;-1.498;2022-10-28T11:03:24;1.85;;;0.70;;
41897;SDS011;27576;53.366;-1.498;2022-10-28T11:05:54;1.77;;;0.63;;
41897;SDS011;27576;53.366;-1.498;2022-10-28T11:08:26;3.53;;;0.85;;
41897;SDS011;27576;53.366;-1.498;2022-10-28T11:11:06;1.25;;;0.50;;
41897;SDS011;27576;53.366;-1.498;2022-10-28T11:13:36;2.08;;;0.52;;
41897;SDS011;27576;53.366;-1.498;2022-10-28T11:16:20;1.63;;;0.55;;
41897;SDS011;27576;53.366;-1.498;2022-10-28T11:18:51;2.15;;;0.80;;
41897;SDS011;27576;53.366;-1.498;2022-10-28T11:23:59;1.75;;;0.60;;
41897;SDS011;27576;53.366;-1.498;2022-10-28T11:26:33;2.25;;;1.00;;
41897;SDS011;27576;53.366;-1.498;2022-10-28T11:45:56;3.28;;;1.02;;
41897;SDS011;27576;53.366;-1.498;2022-10-28T11:48:40;1.13;;;0.70;;
41897;SDS011;27576;53.366;-1.498;2022-10-28T11:56:26;4.35;;;0.70;;
41897;SDS011;27576;53.366;-1.498;2022-10-28T12:05:21;1.75;;;0.47;;
41897;SDS011;27576;53.366;-1.498;2022-10-28T12:08:09;2.00;;;0.43;;
41897;SDS011;27576;53.366;-1.498;2022-10-28T12:11:01;2.05;;;0.55;;
41897;SDS011;27576;53.366;-1.498;2022-10-28T12:20:54;0.82;;;0.70;;
41897;SDS011;27576;53.366;-1.498;2022-10-28T12:23:26;4.97;;;0.75;;
41897;SDS011;27576;53.366;-1.498;2022-10-28T12:25:54;0.80;;;0.40;;
41897;SDS011;27576;53.366;-1.498;2022-10-28T12:28:26;2.05;;;0.60;;
41897;SDS011;27576;53.366;-1.498;2022-10-28T12:30:56;0.77;;;0.52;;
41897;SDS011;27576;53.366;-1.498;2022-10-28T12:33:26;2.20;;;0.75;;
41897;SDS011;27576;53.366;-1.498;2022-10-28T12:36:11;1.77;;;0.80;;
41897;SDS011;27576;53.366;-1.498;2022-10-28T12:41:39;2.08;;;0.90;;
41897;SDS011;27576;53.366;-1.498;2022-10-28T12:44:12;3.80;;;0.70;;
41897;SDS011;27576;53.366;-1.498;2022-10-28T12:49:45;3.13;;;0.80;;
41897;SDS011;27576;53.366;-1.498;2022-10-28T12:54:58;2.30;;;0.88;;
41897;SDS011;27576;53.366;-1.498;2022-10-28T12:57:31;1.10;;;0.60;;
41897;SDS011;27576;53.366;-1.498;2022-10-28T13:00:05;1.77;;;0.70;;
41897;SDS011;27576;53.366;-1.498;2022-10-28T13:02:50;2.88;;;0.93;;
41897;SDS011;27576;53.366;-1.498;2022-10-28T13:05:24;2.00;;;0.80;;
41897;SDS011;27576;53.366;-1.498;2022-10-28T13:10:40;8.05;;;1.25;;
41897;SDS011;27576;53.366;-1.498;2022-10-28T13:27:31;2.88;;;0.90;;
41897;SDS011;27576;53.366;-1.498;2022-10-28T13:29:57;3.60;;;0.70;;
41897;SDS011;27576;53.366;-1.498;2022-10-28T13:32:39;1.98;;;0.88;;
41897;SDS011;27576;53.366;-1.498;2022-10-28T13:35:10;2.47;;;0.88;;
41897;SDS011;27576;53.366;-1.498;2022-10-28T13:37:48;1.95;;;0.80;;
41897;SDS011;27576;53.366;-1.498;2022-10-28T13:40:35;3.67;;;0.80;;
41897;SDS011;27576;53.366;-1.498;2022-10-28T13:43:19;2.30;;;0.77;;
41897;SDS011;27576;53.366;-1.498;2022-10-28T13:46:05;3.90;;;1.15;;
41897;SDS011;27576;53.366;-1.498;2022-10-28T13:48:43;1.70;;;0.70;;
41897;SDS011;27576;53.366;-1.498;2022-10-28T13:53:39;2.15;;;0.80;;
41897;SDS011;27576;53.366;-1.498;2022-10-28T13:56:49;2.50;;;0.57;;
41897;SDS011;27576;53.366;-1.498;2022-10-28T13:59:22;5.10;;;1.25;;
41897;SDS011;27576;53.366;-1.498;2022-10-28T14:01:51;5.65;;;1.98;;
41897;SDS011;27576;53.366;-1.498;2022-10-28T14:04:27;9.25;;;4.72;;
41897;SDS011;27576;53.366;-1.498;2022-10-28T14:09:27;8.75;;;2.17;;
41897;SDS011;27576;53.366;-1.498;2022-10-28T14:12:10;5.40;;;3.03;;
41897;SDS011;27576;53.366;-1.498;2022-10-28T14:17:36;4.90;;;1.33;;
41897;SDS011;27576;53.366;-1.498;2022-10-28T14:20:27;4.47;;;1.58;;
41897;SDS011;27576;53.366;-1.498;2022-10-28T14:22:59;10.48;;;5.53;;
41897;SDS011;27576;53.366;-1.498;2022-10-28T14:33:31;2.03;;;0.82;;
41897;SDS011;27576;53.366;-1.498;2022-10-28T14:35:58;4.97;;;2.45;;
41897;SDS011;27576;53.366;-1.498;2022-10-28T14:47:35;9.70;;;2.88;;
41897;SDS011;27576;53.366;-1.498;2022-10-28T14:49:39;7.15;;;3.22;;
41897;SDS011;27576;53.366;-1.498;2022-10-28T14:52:12;10.55;;;5.00;;
41897;SDS011;27576;53.366;-1.498;2022-10-28T14:57:12;79.20;;;59.35;;
41897;SDS011;27576;53.366;-1.498;2022-10-28T14:59:43;39.60;;;29.13;;
41897;SDS011;27576;53.366;-1.498;2022-10-28T15:02:17;14.40;;;9.98;;
41897;SDS011;27576;53.366;-1.498;2022-10-28T15:04:46;7.88;;;4.90;;
41897;SDS011;27576;53.366;-1.498;2022-10-28T15:07:21;10.20;;;6.07;;
41897;SDS011;27576;53.366;-1.498;2022-10-28T15:09:47;18.23;;;10.05;;
41897;SDS011;27576;53.366;-1.498;2022-10-28T15:12:17;13.00;;;5.40;;
41897;SDS011;27576;53.366;-1.498;2022-10-28T15:17:21;5.65;;;2.45;;
41897;SDS011;27576;53.366;-1.498;2022-10-28T15:19:52;12.45;;;5.55;;
41897;SDS011;27576;53.366;-1.498;2022-10-28T15:22:39;7.28;;;2.72;;
41897;SDS011;27576;53.366;-1.498;2022-10-28T15:25:11;10.13;;;5.47;;
41897;SDS011;27576;53.366;-1.498;2022-10-28T15:27:38;5.97;;;2.42;;
41897;SDS011;27576;53.366;-1.498;2022-10-28T15:30:17;3.97;;;1.02;;
41897;SDS011;27576;53.366;-1.498;2022-10-28T15:32:47;6.00;;;1.85;;
41897;SDS011;27576;53.366;-1.498;2022-10-28T15:37:55;3.17;;;1.70;;
41897;SDS011;27576;53.366;-1.498;2022-10-28T15:45:28;1.42;;;0.90;;
41897;SDS011;27576;53.366;-1.498;2022-10-28T15:47:56;4.32;;;1.30;;
41897;SDS011;27576;53.366;-1.498;2022-10-28T15:53:18;5.30;;;1.10;;
41897;SDS011;27576;53.366;-1.498;2022-10-28T15:55:50;4.57;;;1.20;;
41897;SDS011;27576;53.366;-1.498;2022-10-28T15:58:34;3.97;;;1.25;;
41897;SDS011;27576;53.366;-1.498;2022-10-28T16:01:06;6.95;;;1.80;;
41897;SDS011;27576;53.366;-1.498;2022-10-28T16:04:05;3.40;;;1.33;;
41897;SDS011;27576;53.366;-1.498;2022-10-28T16:06:51;2.55;;;1.30;;
41897;SDS011;27576;53.366;-1.498;2022-10-28T16:11:47;2.50;;;1.10;;
41897;SDS011;27576;53.366;-1.498;2022-10-28T16:17:02;5.45;;;1.42;;
41897;SDS011;27576;53.366;-1.498;2022-10-28T16:19:29;5.75;;;2.33;;
41897;SDS011;27576;53.366;-1.498;2022-10-28T16:22:02;3.78;;;1.60;;
41897;SDS011;27576;53.366;-1.498;2022-10-28T16:24:28;4.32;;;1.58;;
41897;SDS011;27576;53.366;-1.498;2022-10-28T16:26:53;8.13;;;2.40;;
41897;SDS011;27576;53.366;-1.498;2022-10-28T16:29:38;6.50;;;1.88;;
41897;SDS011;27576;53.366;-1.498;2022-10-28T16:32:03;8.45;;;5.25;;
41897;SDS011;27576;53.366;-1.498;2022-10-28T16:34:29;10.05;;;5.57;;
41897;SDS011;27576;53.366;-1.498;2022-10-28T16:36:54;6.70;;;3.63;;
41897;SDS011;27576;53.366;-1.498;2022-10-28T16:39:20;5.00;;;3.15;;
41897;SDS011;27576;53.366;-1.498;2022-10-28T16:41:45;8.00;;;3.25;;
41897;SDS011;27576;53.366;-1.498;2022-10-28T16:44:15;5.85;;;2.70;;
41897;SDS011;27576;53.366;-1.498;2022-10-28T16:46:42;8.45;;;2.92;;
41897;SDS011;27576;53.366;-1.498;2022-10-28T16:49:07;6.55;;;3.08;;
41897;SDS011;27576;53.366;-1.498;2022-10-28T16:51:33;7.35;;;4.05;;
41897;SDS011;27576;53.366;-1.498;2022-10-28T16:53:58;10.38;;;4.07;;
41897;SDS011;27576;53.366;-1.498;2022-10-28T16:56:24;12.18;;;6.80;;
41897;SDS011;27576;53.366;-1.498;2022-10-28T16:58:50;19.17;;;9.63;;
41897;SDS011;27576;53.366;-1.498;2022-10-28T17:01:17;11.57;;;6.57;;
41897;SDS011;27576;53.366;-1.498;2022-10-28T17:03:44;12.00;;;6.45;;
41897;SDS011;27576;53.366;-1.498;2022-10-28T17:06:10;13.27;;;6.75;;
41897;SDS011;27576;53.366;-1.498;2022-10-28T17:08:35;17.48;;;8.82;;
41897;SDS011;27576;53.366;-1.498;2022-10-28T17:11:01;12.93;;;7.13;;
41897;SDS011;27576;53.366;-1.498;2022-10-28T17:13:27;8.70;;;4.88;;
41897;SDS011;27576;53.366;-1.498;2022-10-28T17:15:52;11.05;;;4.03;;
41897;SDS011;27576;53.366;-1.498;2022-10-28T17:18:18;8.50;;;3.13;;
41897;SDS011;27576;53.366;-1.498;2022-10-28T17:20:44;10.88;;;3.50;;
41897;SDS011;27576;53.366;-1.498;2022-10-28T17:23:10;7.90;;;3.08;;
41897;SDS011;27576;53.366;-1.498;2022-10-28T17:25:36;15.75;;;4.43;;
41897;SDS011;27576;53.366;-1.498;2022-10-28T17:28:01;8.95;;;3.90;;
41897;SDS011;27576;53.366;-1.498;2022-10-28T17:30:27;7.53;;;3.67;;
41897;SDS011;27576;53.366;-1.498;2022-10-28T17:32:52;9.00;;;2.90;;
41897;SDS011;27576;53.366;-1.498;2022-10-28T17:35:21;6.43;;;3.05;;
41897;SDS011;27576;53.366;-1.498;2022-10-28T17:37:47;6.35;;;2.92;;
41897;SDS011;27576;53.366;-1.498;2022-10-28T17:40:13;7.88;;;3.03;;
41897;SDS011;27576;53.366;-1.498;2022-10-28T17:42:39;6.03;;;2.60;;
41897;SDS011;27576;53.366;-1.498;2022-10-28T17:45:04;9.73;;;2.63;;
41897;SDS011;27576;53.366;-1.498;2022-10-28T17:47:31;9.70;;;3.30;;
41897;SDS011;27576;53.366;-1.498;2022-10-28T17:49:57;10.48;;;3.30;;
41897;SDS011;27576;53.366;-1.498;2022-10-28T17:52:24;5.78;;;2.72;;
41897;SDS011;27576;53.366;-1.498;2022-10-28T17:54:49;7.88;;;3.20;;
41897;SDS011;27576;53.366;-1.498;2022-10-28T17:57:15;7.63;;;2.88;;
41897;SDS011;27576;53.366;-1.498;2022-10-28T17:59:40;9.82;;;3.17;;
41897;SDS011;27576;53.366;-1.498;2022-10-28T18:02:06;8.15;;;2.83;;
41897;SDS011;27576;53.366;-1.498;2022-10-28T18:04:39;7.78;;;3.10;;
41897;SDS011;27576;53.366;-1.498;2022-10-28T18:07:04;11.55;;;3.75;;
41897;SDS011;27576;53.366;-1.498;2022-10-28T18:09:30;6.07;;;2.78;;
41897;SDS011;27576;53.366;-1.498;2022-10-28T18:11:56;6.00;;;2.83;;
41897;SDS011;27576;53.366;-1.498;2022-10-28T18:14:23;6.72;;;3.03;;
41897;SDS011;27576;53.366;-1.498;2022-10-28T18:16:49;9.60;;;3.10;;
41897;SDS011;27576;53.366;-1.498;2022-10-28T18:19:14;8.07;;;2.70;;
41897;SDS011;27576;53.366;-1.498;2022-10-28T18:21:40;7.30;;;3.47;;
41897;SDS011;27576;53.366;-1.498;2022-10-28T18:24:07;8.77;;;3.30;;
41897;SDS011;27576;53.366;-1.498;2022-10-28T18:26:33;9.25;;;2.97;;
41897;SDS011;27576;53.366;-1.498;2022-10-28T18:29:00;11.15;;;3.85;;
41897;SDS011;27576;53.366;-1.498;2022-10-28T18:31:32;11.90;;;4.32;;
41897;SDS011;27576;53.366;-1.498;2022-10-28T18:33:58;8.77;;;4.20;;
41897;SDS011;27576;53.366;-1.498;2022-10-28T18:36:25;11.23;;;4.25;;
41897;SDS011;27576;53.366;-1.498;2022-10-28T18:38:53;10.95;;;3.50;;
41897;SDS011;27576;53.366;-1.498;2022-10-28T18:41:22;8.52;;;2.75;;
41897;SDS011;27576;53.366;-1.498;2022-10-28T18:43:53;10.68;;;3.15;;
41897;SDS011;27576;53.366;-1.498;2022-10-28T18:46:23;8.40;;;3.20;;
41897;SDS011;27576;53.366;-1.498;2022-10-28T18:48:49;11.88;;;3.72;;
41897;SDS011;27576;53.366;-1.498;2022-10-28T18:51:15;13.10;;;3.85;;
41897;SDS011;27576;53.366;-1.498;2022-10-28T18:53:41;10.13;;;3.70;;
41897;SDS011;27576;53.366;-1.498;2022-10-28T18:56:09;12.63;;;4.70;;
41897;SDS011;27576;53.366;-1.498;2022-10-28T18:58:37;11.25;;;3.65;;
41897;SDS011;27576;53.366;-1.498;2022-10-28T19:01:03;7.18;;;4.03;;
41897;SDS011;27576;53.366;-1.498;2022-10-28T19:03:29;13.77;;;4.32;;
41897;SDS011;27576;53.366;-1.498;2022-10-28T19:05:59;12.63;;;4.00;;
41897;SDS011;27576;53.366;-1.498;2022-10-28T19:08:25;13.63;;;4.25;;
41897;SDS011;27576;53.366;-1.498;2022-10-28T19:10:53;13.23;;;4.47;;
41897;SDS011;27576;53.366;-1.498;2022-10-28T19:13:19;10.10;;;4.18;;
41897;SDS011;27576;53.366;-1.498;2022-10-28T19:15:45;13.18;;;4.57;;
41897;SDS011;27576;53.366;-1.498;2022-10-28T19:18:11;8.43;;;3.63;;
41897;SDS011;27576;53.366;-1.498;2022-10-28T19:20:36;11.15;;;4.45;;
41897;SDS011;27576;53.366;-1.498;2022-10-28T19:23:01;6.65;;;3.63;;
41897;SDS011;27576;53.366;-1.498;2022-10-28T19:25:27;10.38;;;4.00;;
41897;SDS011;27576;53.366;-1.498;2022-10-28T19:27:52;5.55;;;3.17;;
41897;SDS011;27576;53.366;-1.498;2022-10-28T19:30:18;12.07;;;3.67;;
41897;SDS011;27576;53.366;-1.498;2022-10-28T19:32:43;14.85;;;4.10;;
41897;SDS011;27576;53.366;-1.498;2022-10-28T19:35:08;13.10;;;5.15;;
41897;SDS011;27576;53.366;-1.498;2022-10-28T19:37:34;13.10;;;4.95;;
41897;SDS011;27576;53.366;-1.498;2022-10-28T19:39:59;16.02;;;6.25;;
41897;SDS011;27576;53.366;-1.498;2022-10-28T19:42:24;10.80;;;5.18;;
41897;SDS011;27576;53.366;-1.498;2022-10-28T19:44:50;10.77;;;5.63;;
41897;SDS011;27576;53.366;-1.498;2022-10-28T19:47:15;7.78;;;4.35;;
41897;SDS011;27576;53.366;-1.498;2022-10-28T19:49:41;11.25;;;5.40;;
41897;SDS011;27576;53.366;-1.498;2022-10-28T19:52:06;21.42;;;7.32;;
41897;SDS011;27576;53.366;-1.498;2022-10-28T19:54:31;15.18;;;5.75;;
41897;SDS011;27576;53.366;-1.498;2022-10-28T19:56:57;11.93;;;6.00;;
41897;SDS011;27576;53.366;-1.498;2022-10-28T19:59:22;12.93;;;6.13;;
41897;SDS011;27576;53.366;-1.498;2022-10-28T20:01:48;18.83;;;5.05;;
41897;SDS011;27576;53.366;-1.498;2022-10-28T20:04:13;19.52;;;7.82;;
41897;SDS011;27576;53.366;-1.498;2022-10-28T20:06:41;23.40;;;8.77;;
41897;SDS011;27576;53.366;-1.498;2022-10-28T20:09:06;23.27;;;9.48;;
41897;SDS011;27576;53.366;-1.498;2022-10-28T20:11:33;18.30;;;8.48;;
41897;SDS011;27576;53.366;-1.498;2022-10-28T20:14:02;15.38;;;9.23;;
41897;SDS011;27576;53.366;-1.498;2022-10-28T20:16:30;18.15;;;8.80;;
41897;SDS011;27576;53.366;-1.498;2022-10-28T20:18:56;18.95;;;10.85;;
41897;SDS011;27576;53.366;-1.498;2022-10-28T20:21:23;18.13;;;10.60;;
41897;SDS011;27576;53.366;-1.498;2022-10-28T20:23:51;14.45;;;8.38;;
41897;SDS011;27576;53.366;-1.498;2022-10-28T20:26:19;13.55;;;7.93;;
41897;SDS011;27576;53.366;-1.498;2022-10-28T20:28:45;15.02;;;7.80;;
41897;SDS011;27576;53.366;-1.498;2022-10-28T20:31:12;16.52;;;7.82;;
41897;SDS011;27576;53.366;-1.498;2022-10-28T20:33:40;13.23;;;7.05;;
41897;SDS011;27576;53.366;-1.498;2022-10-28T20:38:56;9.02;;;5.60;;
41897;SDS011;27576;53.366;-1.498;2022-10-28T20:41:24;17.95;;;6.55;;
41897;SDS011;27576;53.366;-1.498;2022-10-28T20:43:51;13.63;;;4.72;;
41897;SDS011;27576;53.366;-1.498;2022-10-28T20:46:17;11.90;;;5.68;;
41897;SDS011;27576;53.366;-1.498;2022-10-28T20:48:43;14.80;;;5.18;;
41897;SDS011;27576;53.366;-1.498;2022-10-28T20:51:09;14.32;;;6.32;;
41897;SDS011;27576;53.366;-1.498;2022-10-28T20:53:35;11.77;;;4.43;;
41897;SDS011;27576;53.366;-1.498;2022-10-28T20:56:01;11.02;;;3.92;;
41897;SDS011;27576;53.366;-1.498;2022-10-28T20:58:28;14.65;;;6.68;;
41897;SDS011;27576;53.366;-1.498;2022-10-28T21:01:00;25.30;;;9.38;;
41897;SDS011;27576;53.366;-1.498;2022-10-28T21:03:27;22.92;;;8.25;;
41897;SDS011;27576;53.366;-1.498;2022-10-28T21:05:52;16.33;;;7.05;;
41897;SDS011;27576;53.366;-1.498;2022-10-28T21:08:18;12.30;;;5.43;;
41897;SDS011;27576;53.366;-1.498;2022-10-28T21:10:43;12.50;;;4.95;;
41897;SDS011;27576;53.366;-1.498;2022-10-28T21:13:08;14.75;;;5.57;;
41897;SDS011;27576;53.366;-1.498;2022-10-28T21:15:34;15.43;;;4.80;;
41897;SDS011;27576;53.366;-1.498;2022-10-28T21:18:02;9.85;;;4.07;;
41897;SDS011;27576;53.366;-1.498;2022-10-28T21:20:28;11.35;;;4.68;;
41897;SDS011;27576;53.366;-1.498;2022-10-28T21:22:54;12.15;;;4.38;;
41897;SDS011;27576;53.366;-1.498;2022-10-28T21:25:20;18.83;;;4.13;;
41897;SDS011;27576;53.366;-1.498;2022-10-28T21:27:45;12.93;;;4.03;;
41897;SDS011;27576;53.366;-1.498;2022-10-28T21:30:10;8.23;;;3.08;;
41897;SDS011;27576;53.366;-1.498;2022-10-28T21:32:36;10.50;;;4.07;;
41897;SDS011;27576;53.366;-1.498;2022-10-28T21:35:02;9.25;;;3.15;;
41897;SDS011;27576;53.366;-1.498;2022-10-28T21:37:28;11.20;;;3.40;;
41897;SDS011;27576;53.366;-1.498;2022-10-28T21:39:54;10.50;;;3.50;;
41897;SDS011;27576;53.366;-1.498;2022-10-28T21:42:19;12.45;;;4.10;;
41897;SDS011;27576;53.366;-1.498;2022-10-28T21:44:45;7.57;;;3.53;;
41897;SDS011;27576;53.366;-1.498;2022-10-28T21:47:10;8.50;;;3.25;;
41897;SDS011;27576;53.366;-1.498;2022-10-28T21:49:36;7.70;;;3.08;;
41897;SDS011;27576;53.366;-1.498;2022-10-28T21:52:01;9.30;;;3.25;;
41897;SDS011;27576;53.366;-1.498;2022-10-28T21:54:26;9.98;;;3.53;;
41897;SDS011;27576;53.366;-1.498;2022-10-28T21:56:52;9.77;;;3.33;;
41897;SDS011;27576;53.366;-1.498;2022-10-28T21:59:17;7.97;;;3.53;;
41897;SDS011;27576;53.366;-1.498;2022-10-28T22:01:42;10.73;;;3.65;;